Flight Track Log - Related Links

Times and Time Zones

All times are in EST time to prevent confusion due to time zone crossing. See the UCA846 flight status page for this flight to view local times or setup timezone preferences in your user account.

Time Position Orientation Groundspeed Altitude Reporting Facility
EST Latitude Longitude Course Direction KTS MPH feet Rate Location/Type
Mon 01:40:36 PM 40.7167 -74.1500 21° North 135 155 1,600  Level New York TRACON
Mon 01:41:36 PM 40.7500 -74.1333 21° North 163 188 3,000 1,150 Climbing New York TRACON
Mon 01:42:36 PM 40.7667 -74.1833 294° West 181 208 3,900 850 Climbing New York TRACON
Mon 01:43:36 PM 40.8000 -74.2500 303° West 215 247 4,700 900 Climbing New York TRACON
Mon 01:44:36 PM 40.8167 -74.3333 285° West 225 259 5,700 1,350 Climbing New York TRACON
Mon 01:45:36 PM 40.8500 -74.4000 303° West 196 226 7,400 1,550 Climbing New York TRACON
Mon 01:46:36 PM 40.8833 -74.4333 323° Northwest 188 216 8,800 800 Climbing New York TRACON
Mon 01:47:36 PM 40.9333 -74.4833 323° Northwest 199 229 9,000 -46 Climbing New York TRACON
Mon 01:56:00 PM 41.0021 -74.7579 304° West  Level Estimated
Mon 02:01:40 PM 41.5050 -75.5114 309° West 232 267 8,100  Level Cleveland Center
Mon 02:02:42 PM 41.5425 -75.5906 302° West 250 288 8,100  Level Cleveland Center
Mon 02:03:00 PM 41.2578 -75.2531 301° West  Level Estimated
Mon 02:03:44 PM 41.5800 -75.6683 303° West 248 285 8,100  Level Cleveland Center
Mon 02:04:00 PM 41.2988 -75.3195 309° West  Level FlightAware Approximate
Mon 02:04:46 PM 41.6178 -75.7536 301° West 254 292 8,100  Level Cleveland Center
Mon 02:05:00 PM 41.3397 -75.3860 309° West  Level FlightAware Approximate
Mon 02:05:48 PM 41.6544 -75.8322 302° West 251 289 8,100  Level Cleveland Center
Mon 02:06:00 PM 41.3806 -75.4526 309° West  Level FlightAware Approximate
Mon 02:06:50 PM 41.6911 -75.9139 301° West 253 291 8,100  Level Cleveland Center
Mon 02:07:00 PM 41.4215 -75.5193 309° West  Level FlightAware Approximate
Mon 02:07:52 PM 41.7358 -76.0094 302° West 254 292 8,100  Level Cleveland Center
Mon 02:08:54 PM 41.7733 -76.0878 303° West 247 284 8,100  Level Cleveland Center
Mon 02:09:56 PM 41.8100 -76.1678 302° West 249 287 8,100  Level Cleveland Center
Mon 02:10:58 PM 41.8458 -76.2469 301° West 249 287 8,100  Level Cleveland Center
Mon 02:12:00 PM 41.8831 -76.3258 302° West 251 289 8,100  Level Cleveland Center
Mon 02:13:02 PM 41.9192 -76.4064 301° West 253 291 8,100  Level Cleveland Center
Mon 02:14:04 PM 41.9556 -76.4864 301° West 251 289 8,100  Level Cleveland Center
Mon 02:15:07 PM 41.9994 -76.5831 301° West 253 291 8,100  Level Cleveland Center
Mon 02:16:09 PM 42.0361 -76.6619 302° West 250 288 8,100  Level Cleveland Center
Mon 02:17:11 PM 42.0717 -76.7428 301° West 251 289 8,100  Level Cleveland Center
Mon 02:18:13 PM 42.1081 -76.8219 302° West 250 288 8,100  Level Cleveland Center
Mon 02:19:15 PM 42.1444 -76.9022 301° West 251 289 8,100  Level Cleveland Center
Mon 02:20:17 PM 42.1806 -76.9844 301° West 256 295 8,100  Level Cleveland Center
Mon 02:21:19 PM 42.2236 -77.0797 301° West 250 288 8,100  Level Cleveland Center
Mon 02:22:21 PM 42.2592 -77.1597 301° West 249 287 8,100  Level Cleveland Center
Mon 02:22:50 PM 42.2761 -77.1983 301° West 250 288 8,100  Level Cleveland Center
Mon 02:23:23 PM 42.2947 -77.2403 301° West 251 289 8,100  Level Cleveland Center
Mon 02:23:51 PM 42.3111 -77.2817 298° West 251 289 8,100  Level Cleveland Center
Mon 02:24:25 PM 42.3311 -77.3219 304° West 252 290 8,100  Level Cleveland Center
Mon 02:24:57 PM 42.3536 -77.3725 301° West 251 289 8,100  Level Cleveland Center
Mon 02:25:27 PM 42.3669 -77.4019 302° West 250 288 8,100  Level Cleveland Center
Mon 02:25:58 PM 42.3889 -77.4531 300° West 250 288 8,100  Level Cleveland Center
Mon 02:26:29 PM 42.4028 -77.4836 302° West 252 290 8,100  Level Cleveland Center
Mon 02:26:58 PM 42.4236 -77.5367 298° West 252 290 8,100  Level Cleveland Center
Mon 02:27:31 PM 42.4447 -77.5786 304° West 252 290 8,100  Level Cleveland Center
Mon 02:27:59 PM 42.4608 -77.6181 299° West 252 290 8,100  Level Cleveland Center
Mon 02:28:33 PM 42.4797 -77.6592 302° West 251 289 8,100  Level Cleveland Center
Mon 02:29:00 PM 42.4958 -77.6989 299° West 252 290 8,100  Level Cleveland Center
Mon 02:29:35 PM 42.5161 -77.7419 303° West 253 291 8,100  Level Cleveland Center
Mon 02:30:00 PM 42.5328 -77.7803 301° West 254 292 8,100  Level Cleveland Center
Mon 02:30:37 PM 42.5542 -77.8300 300° West 254 292 8,100 -120 Level Cleveland Center
Mon 02:31:40 PM 42.5903 -77.9131 301° West 254 292 7,900 -432 Descending Cleveland Center
Mon 02:32:42 PM 42.6283 -78.0003 301° West 265 305 7,200 -435 Descending Cleveland Center
Mon 02:33:44 PM 42.6672 -78.0897 301° West 272 313 7,000 -532 Descending Cleveland Center
Mon 02:34:46 PM 42.7014 -78.1764 298° West 266 306 6,100 -1,210 Descending Cleveland Center
Mon 02:35:48 PM 42.7294 -78.2850 289° West 267 307 4,500 -1,016 Descending Cleveland Center
Mon 02:36:50 PM 42.7544 -78.3792 290° West 255 293 4,000 -242 Descending Cleveland Center
Mon 02:37:52 PM 42.7767 -78.4744 288° West 254 292 4,000  Level Cleveland Center
Mon 02:38:54 PM 42.7911 -78.5725 281° West 254 292 4,000 -339 Level Cleveland Center
Mon 02:39:56 PM 42.8214 -78.6617 295° West 254 292 3,300 -871 Descending Cleveland Center
Mon 02:40:58 PM 42.8744 -78.7275 318° Northwest 248 285 2,200 -629 Descending Cleveland Center
Mon 02:42:00 PM 42.9067 -78.7622 322° Northwest 210 242 2,000 -194 Descending Cleveland Center

Login

Don't have an account? Register now (free) for customized features, flight alerts, and more!